createdAt,value
2022-11-22T00:00:55.620Z,8.20
2022-11-22T00:03:23.571Z,8.20
2022-11-22T00:05:52.863Z,8.20
2022-11-22T00:08:21.001Z,8.20
2022-11-22T00:10:50.308Z,8.20
2022-11-22T00:13:18.626Z,8.20
2022-11-22T00:15:47.026Z,8.20
2022-11-22T00:18:14.979Z,8.20
2022-11-22T00:20:43.097Z,8.20
2022-11-22T00:29:45.416Z,8.20
2022-11-22T00:32:13.361Z,8.20
2022-11-22T00:34:41.479Z,8.30
2022-11-22T00:37:09.463Z,8.20
2022-11-22T00:39:37.430Z,8.30
2022-11-22T00:42:07.067Z,8.30
2022-11-22T00:44:34.995Z,8.40
2022-11-22T00:47:02.921Z,8.30
2022-11-22T00:49:31.254Z,8.40
2022-11-22T00:51:59.393Z,8.40
2022-11-22T00:54:27.360Z,8.40
2022-11-22T00:56:55.191Z,8.40
2022-11-22T00:59:24.439Z,8.40
2022-11-22T01:01:52.491Z,8.40
2022-11-22T01:04:20.385Z,8.40
2022-11-22T01:06:48.479Z,8.40
2022-11-22T01:09:19.890Z,8.40
2022-11-22T01:11:48.316Z,8.40
2022-11-22T01:14:16.948Z,8.40
2022-11-22T01:16:46.503Z,8.40
2022-11-22T01:19:14.812Z,8.40
2022-11-22T01:21:43.063Z,8.40
2022-11-22T01:24:11.453Z,8.40
2022-11-22T01:26:39.348Z,8.40
2022-11-22T01:29:07.331Z,8.40
2022-11-22T01:31:35.257Z,8.40
2022-11-22T01:34:06.755Z,8.40
2022-11-22T01:36:34.668Z,8.40
2022-11-22T01:39:02.554Z,8.40
2022-11-22T01:41:30.411Z,8.30
2022-11-22T01:43:58.379Z,8.30
2022-11-22T01:46:33.413Z,8.30
2022-11-22T01:49:07.484Z,8.30
2022-11-22T01:51:36.377Z,8.30
2022-11-22T01:54:08.982Z,8.20
2022-11-22T01:56:38.870Z,8.20
2022-11-22T01:59:12.611Z,8.20
2022-11-22T02:01:40.939Z,8.20
2022-11-22T02:04:13.539Z,8.10
2022-11-22T02:06:50.334Z,8.10
2022-11-22T02:09:18.512Z,8.10
2022-11-22T02:11:51.255Z,8.10
2022-11-22T02:14:25.004Z,8.10
2022-11-22T02:16:52.875Z,8.10
2022-11-22T02:19:34.843Z,8.10
2022-11-22T02:22:08.033Z,8.20
2022-11-22T02:24:41.299Z,8.10
2022-11-22T02:27:10.555Z,8.20
2022-11-22T02:29:38.946Z,8.20
2022-11-22T02:32:07.036Z,8.20
2022-11-22T02:34:43.455Z,8.10
2022-11-22T02:37:12.296Z,8.10
2022-11-22T02:39:42.493Z,8.10
2022-11-22T02:42:12.162Z,8.20
2022-11-22T02:44:42.209Z,8.10
2022-11-22T02:47:10.295Z,8.10
2022-11-22T02:49:38.159Z,8.10
2022-11-22T02:52:06.113Z,8.10
2022-11-22T02:54:34.099Z,8.10
2022-11-22T02:57:03.506Z,8.10
2022-11-22T02:59:32.830Z,8.10
2022-11-22T03:02:03.386Z,8.10
2022-11-22T03:04:31.636Z,8.10
2022-11-22T03:07:02.268Z,8.20
2022-11-22T03:09:30.747Z,8.10
2022-11-22T03:11:59.576Z,8.10
2022-11-22T03:14:27.831Z,8.10
2022-11-22T03:16:57.328Z,8.10
2022-11-22T03:19:25.228Z,8.10
2022-11-22T03:21:53.512Z,8.10
2022-11-22T03:24:21.569Z,8.10
2022-11-22T03:26:50.494Z,8.10
2022-11-22T03:29:19.191Z,8.10
2022-11-22T03:31:47.110Z,8.10
2022-11-22T03:34:16.767Z,8.00
2022-11-22T03:36:45.164Z,8.00
2022-11-22T03:39:13.061Z,8.00
2022-11-22T03:41:41.166Z,8.00
2022-11-22T03:44:09.234Z,8.00
2022-11-22T03:46:37.207Z,8.00
2022-11-22T03:49:05.089Z,8.00
2022-11-22T03:51:34.392Z,7.90
2022-11-22T03:54:02.326Z,7.90
2022-11-22T03:56:30.219Z,7.90
2022-11-22T03:58:58.141Z,7.90
2022-11-22T04:01:26.116Z,7.90
2022-11-22T04:03:54.046Z,7.80
2022-11-22T04:06:22.020Z,7.80
2022-11-22T04:08:51.556Z,7.80
2022-11-22T04:11:19.517Z,7.80
2022-11-22T04:14:04.860Z,7.80
2022-11-22T04:16:32.832Z,7.80
2022-11-22T04:19:00.721Z,7.70
2022-11-22T04:21:34.499Z,7.70
2022-11-22T04:24:22.171Z,7.70
2022-11-22T04:26:50.381Z,7.60
2022-11-22T04:29:20.077Z,7.60
2022-11-22T04:32:06.156Z,7.60
2022-11-22T04:34:34.334Z,7.50
2022-11-22T04:37:02.766Z,7.50
2022-11-22T04:39:32.473Z,7.50
2022-11-22T04:42:18.222Z,7.50
2022-11-22T04:44:47.364Z,7.50
2022-11-22T04:47:38.782Z,7.40
2022-11-22T04:50:29.940Z,7.50
2022-11-22T04:52:57.956Z,7.40
2022-11-22T04:55:27.352Z,7.40
2022-11-22T04:57:59.714Z,7.40
2022-11-22T05:00:28.752Z,7.30
2022-11-22T05:02:56.727Z,7.30
2022-11-22T05:05:24.794Z,7.30
2022-11-22T05:07:52.909Z,7.30
2022-11-22T05:10:26.128Z,7.30
2022-11-22T05:12:56.537Z,7.30
2022-11-22T05:15:24.415Z,7.30
2022-11-22T05:17:52.454Z,7.20
2022-11-22T05:20:20.522Z,7.20
2022-11-22T05:23:06.209Z,7.20
2022-11-22T05:25:34.069Z,7.20
2022-11-22T05:28:03.323Z,7.20
2022-11-22T05:30:31.239Z,7.20
2022-11-22T05:32:59.206Z,7.20
2022-11-22T05:35:27.143Z,7.10
2022-11-22T05:37:57.249Z,7.10
2022-11-22T05:40:25.796Z,7.10
2022-11-22T05:42:53.847Z,7.10
2022-11-22T05:45:23.086Z,7.10
2022-11-22T05:47:51.070Z,7.10
2022-11-22T05:50:19.473Z,7.10
2022-11-22T05:52:47.466Z,7.00
2022-11-22T05:55:15.464Z,7.00
2022-11-22T05:57:43.408Z,7.00
2022-11-22T06:00:12.090Z,7.00
2022-11-22T06:02:41.439Z,7.00
2022-11-22T06:05:10.221Z,7.00
2022-11-22T06:07:38.349Z,7.00
2022-11-22T06:10:06.810Z,6.90
2022-11-22T06:12:34.734Z,7.00
2022-11-22T06:15:03.327Z,6.90
2022-11-22T06:17:31.251Z,6.90
2022-11-22T06:20:05.860Z,6.90
2022-11-22T06:22:36.838Z,6.90
2022-11-22T06:25:05.450Z,6.90
2022-11-22T06:27:33.334Z,6.90
2022-11-22T06:30:01.261Z,6.90
2022-11-22T06:32:29.200Z,6.90
2022-11-22T06:34:57.139Z,6.90
2022-11-22T06:37:26.450Z,6.90
2022-11-22T06:39:54.323Z,6.80
2022-11-22T06:42:22.258Z,6.80
2022-11-22T06:44:50.229Z,6.80
2022-11-22T06:47:18.577Z,6.80
2022-11-22T06:49:46.868Z,6.80
2022-11-22T06:52:14.802Z,6.80
2022-11-22T06:54:44.072Z,6.80
2022-11-22T06:57:14.549Z,6.70
2022-11-22T06:59:42.447Z,6.70
2022-11-22T07:02:12.684Z,6.70
2022-11-22T07:05:02.213Z,6.70
2022-11-22T07:07:28.590Z,6.70
2022-11-22T07:09:57.846Z,6.70
2022-11-22T07:12:25.833Z,6.70
2022-11-22T07:14:53.698Z,6.70
2022-11-22T07:17:21.649Z,6.70
2022-11-22T07:19:49.514Z,6.70
2022-11-22T07:22:17.476Z,6.70
2022-11-22T07:24:45.488Z,6.70
2022-11-22T07:27:14.723Z,6.70
2022-11-22T07:29:42.693Z,6.70
2022-11-22T07:32:10.624Z,6.80
2022-11-22T07:34:38.588Z,6.80
2022-11-22T07:37:09.225Z,6.80
2022-11-22T07:39:37.408Z,6.80
2022-11-22T07:42:05.480Z,6.80
2022-11-22T07:44:34.717Z,6.90
2022-11-22T07:47:02.665Z,6.90
2022-11-22T07:49:30.815Z,6.90
2022-11-22T07:51:59.489Z,6.90
2022-11-22T07:54:27.492Z,6.90
2022-11-22T07:56:55.381Z,6.90
2022-11-22T07:59:23.333Z,7.00
2022-11-22T08:01:53.121Z,7.00
2022-11-22T08:04:21.088Z,7.00
2022-11-22T08:06:49.005Z,7.00
2022-11-22T08:09:19.494Z,7.00
2022-11-22T08:11:47.436Z,7.00
2022-11-22T08:14:15.472Z,7.10
2022-11-22T08:16:43.416Z,7.10
2022-11-22T08:19:17.357Z,7.10
2022-11-22T08:21:45.546Z,7.10
2022-11-22T08:24:13.560Z,7.10
2022-11-22T08:26:41.539Z,7.10
2022-11-22T08:29:14.501Z,7.10
2022-11-22T08:31:42.711Z,7.10
2022-11-22T08:34:11.934Z,7.10
2022-11-22T08:36:39.836Z,7.10
2022-11-22T08:39:07.913Z,7.20
2022-11-22T08:41:36.047Z,7.20
2022-11-22T08:44:04.198Z,7.20
2022-11-22T08:46:32.151Z,7.30
2022-11-22T08:49:00.174Z,7.30
2022-11-22T08:51:29.418Z,7.30
2022-11-22T08:53:57.693Z,7.30
2022-11-22T08:56:25.613Z,7.30
2022-11-22T08:58:53.540Z,7.30
2022-11-22T09:01:23.558Z,7.30
2022-11-22T09:03:51.541Z,7.30
2022-11-22T09:11:58.341Z,7.40
2022-11-22T09:14:26.245Z,7.40
2022-11-22T09:16:54.212Z,7.40
2022-11-22T09:19:22.117Z,7.50
2022-11-22T09:21:50.081Z,7.50
2022-11-22T09:24:19.487Z,7.50
2022-11-22T09:26:47.393Z,7.50
2022-11-22T09:29:16.059Z,7.50
2022-11-22T09:31:43.953Z,7.60
2022-11-22T09:34:11.813Z,7.60
2022-11-22T09:36:39.694Z,7.60
2022-11-22T09:39:07.575Z,7.60
2022-11-22T09:42:10.471Z,7.70
2022-11-22T09:44:52.936Z,7.70
2022-11-22T09:47:29.534Z,7.70
2022-11-22T09:50:07.461Z,7.80
2022-11-22T09:52:39.980Z,7.80
2022-11-22T09:55:24.402Z,7.80
2022-11-22T09:58:03.457Z,7.80
2022-11-22T10:00:31.945Z,7.80
2022-11-22T10:03:07.748Z,7.80
2022-11-22T10:05:46.110Z,7.90
2022-11-22T10:08:27.158Z,7.90
2022-11-22T10:10:56.960Z,7.90
2022-11-22T10:13:32.740Z,7.90
2022-11-22T10:16:08.592Z,8.00
2022-11-22T10:18:41.109Z,8.00
2022-11-22T10:21:12.745Z,8.00
2022-11-22T10:23:42.690Z,8.00
2022-11-22T10:26:21.380Z,8.00
2022-11-22T10:29:01.105Z,8.00
2022-11-22T10:31:34.241Z,8.10
2022-11-22T10:34:12.022Z,8.10
2022-11-22T10:36:48.160Z,8.10
2022-11-22T10:39:24.454Z,8.10
2022-11-22T10:42:25.014Z,8.10
2022-11-22T10:45:03.238Z,8.10
2022-11-22T10:47:44.133Z,8.20
2022-11-22T10:50:18.180Z,8.20
2022-11-22T10:52:50.021Z,8.20
2022-11-22T10:55:31.971Z,8.20
2022-11-22T10:58:09.978Z,8.20
2022-11-22T11:00:44.848Z,8.20
2022-11-22T11:03:30.280Z,8.20
2022-11-22T11:06:29.627Z,8.20
2022-11-22T11:11:47.861Z,8.30
2022-11-22T11:14:27.639Z,8.30
2022-11-22T11:16:57.237Z,8.30
2022-11-22T11:19:26.372Z,8.40
2022-11-22T11:22:00.830Z,8.40
2022-11-22T11:24:31.257Z,8.40
2022-11-22T11:27:01.549Z,8.50
2022-11-22T11:29:38.441Z,8.50
2022-11-22T11:32:11.003Z,8.60
2022-11-22T11:34:41.977Z,8.60
2022-11-22T11:37:19.778Z,8.60
2022-11-22T11:39:48.513Z,8.70
2022-11-22T11:42:33.224Z,8.80
2022-11-22T11:45:28.194Z,8.80
2022-11-22T11:47:57.682Z,8.90
2022-11-22T11:50:27.810Z,8.90
2022-11-22T11:52:57.964Z,8.90
2022-11-22T11:55:31.377Z,9.00
2022-11-22T11:57:59.435Z,9.00
2022-11-22T12:00:35.934Z,9.00
2022-11-22T12:03:08.591Z,9.10
2022-11-22T12:05:36.527Z,9.10
2022-11-22T12:08:25.061Z,9.10
2022-11-22T12:11:02.912Z,9.10
2022-11-22T12:13:57.763Z,9.20
2022-11-22T12:16:28.683Z,9.20
2022-11-22T12:19:01.686Z,9.20
2022-11-22T12:21:36.508Z,9.20
2022-11-22T12:27:01.482Z,9.20
2022-11-22T12:29:29.495Z,9.20
2022-11-22T12:32:01.359Z,9.20
2022-11-22T12:34:34.103Z,9.20
2022-11-22T12:37:09.093Z,9.30
2022-11-22T12:39:38.238Z,9.20
2022-11-22T12:42:12.875Z,9.30
2022-11-22T12:44:47.908Z,9.20
2022-11-22T12:47:21.374Z,9.20
2022-11-22T12:48:23.487Z,9.20
2022-11-22T12:49:53.195Z,9.30
2022-11-22T12:52:26.863Z,9.30
2022-11-22T12:55:03.473Z,9.30
2022-11-22T12:57:39.642Z,9.20
2022-11-22T13:00:15.994Z,9.30
2022-11-22T13:02:54.504Z,9.30
2022-11-22T13:05:28.449Z,9.20
2022-11-22T13:08:02.001Z,9.20
2022-11-22T13:10:37.318Z,9.20
2022-11-22T13:13:13.228Z,9.20
2022-11-22T13:15:41.848Z,9.20
2022-11-22T13:18:12.647Z,9.20
2022-11-22T13:20:45.644Z,9.30
2022-11-22T13:23:36.867Z,9.30
2022-11-22T13:26:14.737Z,9.30
2022-11-22T13:28:45.915Z,9.30
2022-11-22T13:31:19.812Z,9.30
2022-11-22T13:33:57.587Z,9.30
2022-11-22T13:36:44.603Z,9.30
2022-11-22T13:39:18.080Z,9.30
2022-11-22T13:42:04.232Z,9.30
2022-11-22T13:44:51.686Z,9.30
2022-11-22T13:47:40.267Z,9.30
2022-11-22T13:50:50.851Z,9.40
2022-11-22T13:53:24.828Z,9.30
2022-11-22T13:55:52.928Z,9.30
2022-11-22T13:58:55.993Z,9.30
2022-11-22T14:01:56.364Z,9.40
2022-11-22T14:04:41.405Z,9.40
2022-11-22T14:07:34.549Z,9.30
2022-11-22T14:10:03.999Z,9.40
2022-11-22T14:12:55.858Z,9.40
2022-11-22T14:15:42.391Z,9.30
2022-11-22T14:18:41.764Z,9.40
2022-11-22T14:21:18.397Z,9.30
2022-11-22T14:23:59.790Z,9.40
2022-11-22T14:26:34.524Z,9.40
2022-11-22T14:29:27.992Z,9.30
2022-11-22T14:32:01.877Z,9.30
2022-11-22T14:34:31.753Z,9.30
2022-11-22T14:37:33.777Z,9.30
2022-11-22T14:40:16.654Z,9.40
2022-11-22T14:43:07.043Z,9.40
2022-11-22T14:45:43.450Z,9.40
2022-11-22T14:48:20.597Z,9.40
2022-11-22T14:50:53.032Z,9.40
2022-11-22T14:53:42.512Z,9.40
2022-11-22T14:56:17.239Z,9.40
2022-11-22T14:58:57.908Z,9.40
2022-11-22T15:01:56.598Z,9.40
2022-11-22T15:09:19.916Z,9.40
2022-11-22T15:09:23.697Z,9.50
2022-11-22T15:11:08.458Z,9.40
2022-11-22T15:14:10.707Z,9.40
2022-11-22T15:57:26.363Z,9.70
2022-11-22T15:59:55.621Z,9.70
2022-11-22T16:02:26.238Z,9.70
2022-11-22T16:06:08.848Z,9.70
2022-11-22T16:07:48.999Z,9.70
2022-11-22T16:10:21.535Z,9.70
2022-11-22T16:12:50.002Z,9.70
2022-11-22T16:15:28.407Z,9.70
2022-11-22T16:18:07.525Z,9.80
2022-11-22T16:20:38.020Z,9.70
2022-11-22T16:23:27.771Z,9.70
2022-11-22T16:25:59.335Z,9.60
2022-11-22T16:28:35.733Z,9.50
2022-11-22T16:31:07.860Z,9.40
2022-11-22T16:33:35.945Z,9.40
2022-11-22T16:36:10.816Z,9.40
2022-11-22T16:38:38.714Z,9.40
2022-11-22T16:41:11.294Z,9.30
2022-11-22T16:43:39.127Z,9.30
2022-11-22T16:46:07.300Z,9.30
2022-11-22T16:48:35.382Z,9.30
2022-11-22T16:51:06.933Z,9.30
2022-11-22T16:53:39.365Z,9.20
2022-11-22T16:56:08.077Z,9.20
2022-11-22T16:58:36.305Z,9.20
2022-11-22T17:01:04.511Z,9.20
2022-11-22T17:03:34.359Z,9.20
2022-11-22T17:06:02.273Z,9.20
2022-11-22T17:08:31.468Z,9.20
2022-11-22T17:10:59.906Z,9.20
2022-11-22T17:13:28.827Z,9.10
2022-11-22T17:15:57.804Z,9.10
2022-11-22T17:18:25.775Z,9.10
2022-11-22T17:20:53.851Z,9.10
2022-11-22T17:23:27.655Z,9.10
2022-11-22T17:25:57.101Z,9.10
2022-11-22T17:28:25.078Z,9.10
2022-11-22T17:30:53.091Z,9.10
2022-11-22T17:33:20.988Z,9.10
2022-11-22T17:35:48.833Z,9.10
2022-11-22T17:38:16.751Z,9.10
2022-11-22T17:40:45.356Z,9.10
2022-11-22T17:43:14.710Z,9.10
2022-11-22T17:45:43.750Z,9.10
2022-11-22T17:48:11.915Z,9.10
2022-11-22T17:50:39.932Z,9.10
2022-11-22T17:53:07.877Z,9.10
2022-11-22T17:56:08.490Z,9.10
2022-11-22T17:58:25.122Z,9.10
2022-11-22T18:00:53.082Z,9.10
2022-11-22T18:03:20.946Z,9.10
2022-11-22T18:05:48.875Z,9.10
2022-11-22T18:08:16.724Z,9.10
2022-11-22T18:10:44.559Z,9.10
2022-11-22T18:13:21.362Z,9.10
2022-11-22T18:15:52.995Z,9.10
2022-11-22T18:18:48.430Z,9.10
2022-11-22T18:21:14.131Z,9.10
2022-11-22T18:23:45.328Z,9.10
2022-11-22T18:31:52.862Z,9.20
2022-11-22T18:34:21.587Z,9.20
2022-11-22T18:37:01.867Z,9.20
2022-11-22T18:39:32.135Z,9.20
2022-11-22T18:42:00.331Z,9.20
2022-11-22T18:44:28.192Z,9.20
2022-11-22T18:46:57.498Z,9.20
2022-11-22T18:49:25.424Z,9.30
2022-11-22T18:51:53.465Z,9.30
2022-11-22T18:54:22.167Z,9.20
2022-11-22T18:56:50.337Z,9.20
2022-11-22T18:59:18.699Z,9.30
2022-11-22T19:01:46.982Z,9.30
2022-11-22T19:04:16.991Z,9.30
2022-11-22T19:06:45.846Z,9.30
2022-11-22T19:09:13.818Z,9.30
2022-11-22T19:11:42.067Z,9.30
2022-11-22T19:14:10.079Z,9.30
2022-11-22T19:16:38.014Z,9.30
2022-11-22T19:19:05.921Z,9.30
2022-11-22T19:21:35.131Z,9.40
2022-11-22T19:24:03.018Z,9.40
2022-11-22T19:26:30.912Z,9.30
2022-11-22T19:29:02.785Z,9.30
2022-11-22T19:31:31.504Z,9.30
2022-11-22T19:34:00.375Z,9.30
2022-11-22T19:36:36.371Z,9.30
2022-11-22T19:39:06.575Z,9.30
2022-11-22T19:41:35.047Z,9.30
2022-11-22T19:44:03.230Z,9.30
2022-11-22T19:46:31.570Z,9.30
2022-11-22T19:49:01.134Z,9.40
2022-11-22T19:51:31.862Z,9.40
2022-11-22T19:54:02.143Z,9.40
2022-11-22T19:56:33.265Z,9.30
2022-11-22T19:59:02.995Z,9.40
2022-11-22T20:01:33.461Z,9.40
2022-11-22T20:04:03.499Z,9.40
2022-11-22T20:06:31.903Z,9.40
2022-11-22T20:09:03.921Z,9.40
2022-11-22T20:11:33.243Z,9.40
2022-11-22T20:14:01.155Z,9.40
2022-11-22T20:16:30.762Z,9.40
2022-11-22T20:19:00.214Z,9.40
2022-11-22T20:21:31.861Z,9.40
2022-11-22T20:24:00.612Z,9.40
2022-11-22T20:26:28.967Z,9.40
2022-11-22T20:28:59.894Z,9.40
2022-11-22T20:31:30.256Z,9.40
2022-11-22T20:34:00.700Z,9.40
2022-11-22T20:36:30.288Z,9.40
2022-11-22T20:38:58.868Z,9.40
2022-11-22T20:41:28.853Z,9.40
2022-11-22T20:43:58.279Z,9.40
2022-11-22T20:46:27.926Z,9.40
2022-11-22T20:48:57.955Z,9.40
2022-11-22T20:51:27.902Z,9.40
2022-11-22T20:53:56.672Z,9.40
2022-11-22T20:56:24.980Z,9.50
2022-11-22T20:58:53.439Z,9.40
2022-11-22T21:01:24.232Z,9.50
2022-11-22T21:03:52.726Z,9.50
2022-11-22T21:06:22.855Z,9.50
2022-11-22T21:08:51.195Z,9.50
2022-11-22T21:11:20.778Z,9.50
2022-11-22T21:13:48.980Z,9.50
2022-11-22T21:16:25.312Z,9.50
2022-11-22T21:18:56.264Z,9.50
2022-11-22T21:21:25.241Z,9.50
2022-11-22T21:23:54.515Z,9.50
2022-11-22T21:26:23.134Z,9.50
2022-11-22T21:28:52.047Z,9.50
2022-11-22T21:31:20.906Z,9.60
2022-11-22T21:33:48.964Z,9.60
2022-11-22T21:36:18.898Z,9.50
2022-11-22T21:38:46.947Z,9.60
2022-11-22T21:41:39.200Z,9.50
2022-11-22T21:44:04.521Z,9.50
2022-11-22T21:46:32.507Z,9.60
2022-11-22T21:49:00.378Z,9.60
2022-11-22T21:51:29.596Z,9.60
2022-11-22T21:53:58.816Z,9.60
2022-11-22T21:56:26.958Z,9.50
2022-11-22T21:58:54.990Z,9.60
2022-11-22T22:01:23.731Z,9.60
2022-11-22T22:03:51.933Z,9.60
2022-11-22T22:06:20.196Z,9.60
2022-11-22T22:08:49.567Z,9.60
2022-11-22T22:11:17.476Z,9.60
2022-11-22T22:13:45.465Z,9.60
2022-11-22T22:16:18.774Z,9.60
2022-11-22T22:18:47.515Z,9.60
2022-11-22T22:21:16.679Z,9.70
2022-11-22T22:23:45.616Z,9.60
2022-11-22T22:26:16.310Z,9.70
2022-11-22T22:28:45.510Z,9.70
2022-11-22T22:31:17.022Z,9.60
2022-11-22T22:33:46.564Z,9.70
2022-11-22T22:36:15.270Z,9.70
2022-11-22T22:38:43.414Z,9.70
2022-11-22T22:41:14.451Z,9.70
2022-11-22T22:43:43.720Z,9.70
2022-11-22T22:46:14.010Z,9.70
2022-11-22T22:48:42.894Z,9.70
2022-11-22T22:51:14.704Z,9.70
2022-11-22T22:53:43.510Z,9.70
2022-11-22T22:56:12.017Z,9.70
2022-11-22T22:58:41.899Z,9.70
2022-11-22T23:01:12.214Z,9.70
2022-11-22T23:03:40.251Z,9.80
2022-11-22T23:06:09.215Z,9.80
2022-11-22T23:08:37.126Z,9.80
2022-11-22T23:11:06.592Z,9.70
2022-11-22T23:13:36.841Z,9.80
2022-11-22T23:16:07.406Z,9.80
2022-11-22T23:18:37.450Z,9.80
2022-11-22T23:21:07.804Z,9.80
2022-11-22T23:23:36.043Z,9.80
2022-11-22T23:26:05.344Z,9.80
2022-11-22T23:28:33.466Z,9.80
2022-11-22T23:31:12.947Z,9.80
2022-11-22T23:33:41.300Z,9.80
2022-11-22T23:36:11.402Z,9.80
2022-11-22T23:38:39.743Z,9.80
2022-11-22T23:41:08.028Z,9.80
2022-11-22T23:43:35.949Z,9.80
2022-11-22T23:46:03.886Z,9.80
2022-11-22T23:48:33.172Z,9.80
2022-11-22T23:51:05.936Z,9.80
2022-11-22T23:53:33.806Z,9.90
2022-11-22T23:56:06.414Z,9.90
2022-11-22T23:58:34.375Z,9.90
